PWSweather.com
Personal Weather Stations
Station Observations
KNCCHINA3
Red Tractor Trail, China Grove, NC 28023

Red Tractor TrailChina Grove, NC 28023

Lat: 35.59751, Lon: -80.60201

Elevation: 800

Station Type: Oregon Scientific WMR 968

http://www.joesweathergarage.com

High Low Average
Temperature 58.3°F14.6°C 47.7°F8.7°C 53.5°F11.9°C
Dew Point 58.3°F14.6°C 38.9°F3.8°C 49.9°F9.9°C
Winds 8.1 mph 13.0 kmh Calm Calm 2.0 mph E3.2 kmh E
Wind Gusts 9.4 mph15.1 kmh -- 3.0 mph4.8 kmh
Humidity 100% 58% 89%
Pressure 29.94 in1013.9 mb 29.65 in1004.1 mb -
Precipitation 0.21 in5.3 mm - -
Hour Temp Dew Point Humidity Winds Wind Gusts Pressure Precip Precip Rate Daily Precip Total
12:02 AM 53.1°F11.7°C 39.4°F4.1°C 59% Calm Calm -- 29.94 in1013.9 mb 0.00 in0.0 mm 0.00 in0.0 mm 0.00 in0.0 mm
12:07 AM 53.1°F11.7°C 39.9°F4.4°C 61% Calm Calm -- 29.94 in1013.9 mb 0.00 in0.0 mm 0.00 in0.0 mm 0.00 in0.0 mm
12:12 AM 52.9°F11.6°C 40.2°F4.6°C 62% Calm Calm -- 29.94 in1013.9 mb 0.00 in0.0 mm 0.00 in0.0 mm 0.00 in0.0 mm
12:17 AM 52.9°F11.6°C 39.2°F4.0°C 59% Calm Calm -- 29.94 in1013.9 mb 0.00 in0.0 mm 0.00 in0.0 mm 0.00 in0.0 mm
12:22 AM 52.9°F11.6°C 40.2°F4.6°C 62% Calm Calm -- 29.94 in1013.9 mb 0.00 in0.0 mm 0.00 in0.0 mm 0.00 in0.0 mm
12:27 AM 52.9°F11.6°C 39.2°F4.0°C 59% Calm Calm -- 29.97 in1014.9 mb 0.00 in0.0 mm 0.00 in0.0 mm 0.00 in0.0 mm
12:32 AM 53.1°F11.7°C 38.9°F3.8°C 58% Calm Calm -- 29.97 in1014.9 mb 0.00 in0.0 mm 0.00 in0.0 mm 0.00 in0.0 mm
12:37 AM 53.1°F11.7°C 38.9°F3.8°C 58% Calm Calm -- 29.97 in1014.9 mb 0.00 in0.0 mm 0.00 in0.0 mm 0.00 in0.0 mm
12:42 AM 53.1°F11.7°C 39.4°F4.1°C 59% Calm Calm -- 29.94 in1013.9 mb 0.00 in0.0 mm 0.00 in0.0 mm 0.00 in0.0 mm
12:47 AM 52.9°F11.6°C 40.2°F4.6°C 62% Calm Calm -- 29.94 in1013.9 mb 0.00 in0.0 mm 0.00 in0.0 mm 0.00 in0.0 mm
12:52 AM 52.9°F11.6°C 40.2°F4.6°C 62% Calm Calm -- 29.94 in1013.9 mb 0.00 in0.0 mm 0.00 in0.0 mm 0.00 in0.0 mm
12:57 AM 52.9°F11.6°C 39.7°F4.3°C 61% Calm Calm -- 29.94 in1013.9 mb 0.00 in0.0 mm 0.00 in0.0 mm 0.00 in0.0 mm
01:02 AM 52.9°F11.6°C 39.2°F4.0°C 59% Calm Calm -- 29.94 in1013.9 mb 0.00 in0.0 mm 0.00 in0.0 mm 0.00 in0.0 mm
01:07 AM 53.1°F11.7°C 39.4°F4.1°C 59% Calm Calm -- 29.94 in1013.9 mb 0.00 in0.0 mm 0.00 in0.0 mm 0.00 in0.0 mm
01:12 AM 53.1°F11.7°C 39.9°F4.4°C 61% Calm Calm -- 29.94 in1013.9 mb 0.00 in0.0 mm 0.00 in0.0 mm 0.00 in0.0 mm
01:17 AM 52.9°F11.6°C 39.2°F4.0°C 59% Calm Calm -- 29.94 in1013.9 mb 0.00 in0.0 mm 0.00 in0.0 mm 0.00 in0.0 mm
01:22 AM 53.1°F11.7°C 38.9°F3.8°C 58% Calm Calm -- 29.94 in1013.9 mb 0.00 in0.0 mm 0.00 in0.0 mm 0.00 in0.0 mm
01:27 AM 53.1°F11.7°C 38.9°F3.8°C 58% Calm Calm -- 29.94 in1013.9 mb 0.00 in0.0 mm 0.00 in0.0 mm 0.00 in0.0 mm
01:32 AM 52.9°F11.6°C 39.7°F4.3°C 61% Calm Calm -- 29.94 in1013.9 mb 0.00 in0.0 mm 0.00 in0.0 mm 0.00 in0.0 mm
01:37 AM 53.1°F11.7°C 39.4°F4.1°C 59% Calm Calm -- 29.94 in1013.9 mb 0.00 in0.0 mm 0.00 in0.0 mm 0.00 in0.0 mm
01:42 AM 52.9°F11.6°C 39.7°F4.3°C 61% Calm Calm -- 29.94 in1013.9 mb 0.00 in0.0 mm 0.00 in0.0 mm 0.00 in0.0 mm
01:47 AM 52.9°F11.6°C 39.7°F4.3°C 61% Calm Calm -- 29.94 in1013.9 mb 0.00 in0.0 mm 0.00 in0.0 mm 0.00 in0.0 mm
01:53 AM 52.7°F11.5°C 39.5°F4.2°C 61% Calm Calm -- 29.91 in1012.9 mb 0.00 in0.0 mm 0.00 in0.0 mm 0.00 in0.0 mm
01:58 AM 52.7°F11.5°C 40.0°F4.4°C 62% Calm Calm -- 29.91 in1012.9 mb 0.00 in0.0 mm 0.00 in0.0 mm 0.00 in0.0 mm
02:03 AM 52.7°F11.5°C 40.9°F4.9°C 64% Calm Calm -- 29.91 in1012.9 mb 0.00 in0.0 mm 0.00 in0.0 mm 0.00 in0.0 mm
02:08 AM 52.5°F11.4°C 42.0°F5.6°C 67% Calm Calm -- 29.94 in1013.9 mb 0.00 in0.0 mm 0.00 in0.0 mm 0.00 in0.0 mm
02:14 AM 52.5°F11.4°C 43.3°F6.3°C 70% Calm Calm -- 29.94 in1013.9 mb 0.00 in0.0 mm 0.00 in0.0 mm 0.00 in0.0 mm
02:20 AM 52.2°F11.2°C 43.0°F6.1°C 70% Calm Calm -- 29.94 in1013.9 mb 0.00 in0.0 mm 0.00 in0.0 mm 0.00 in0.0 mm
02:25 AM 52.2°F11.2°C 43.8°F6.6°C 73% Calm Calm -- 29.94 in1013.9 mb 0.00 in0.0 mm 0.00 in0.0 mm 0.00 in0.0 mm
02:30 AM 52.2°F11.2°C 44.1°F6.7°C 74% Calm Calm -- 29.94 in1013.9 mb 0.00 in0.0 mm 0.00 in0.0 mm 0.00 in0.0 mm
02:35 AM 52.0°F11.1°C 44.7°F7.1°C 76% Calm Calm -- 29.94 in1013.9 mb 0.00 in0.0 mm 0.00 in0.0 mm 0.00 in0.0 mm
02:40 AM 52.0°F11.1°C 44.7°F7.1°C 76% Calm Calm -- 29.94 in1013.9 mb 0.00 in0.0 mm 0.00 in0.0 mm 0.00 in0.0 mm
02:44 AM 52.2°F11.2°C 44.9°F7.2°C 76% Calm Calm -- 29.94 in1013.9 mb 0.00 in0.0 mm 0.00 in0.0 mm 0.00 in0.0 mm
02:50 AM 52.3°F11.3°C 43.9°F6.6°C 73% Calm Calm -- 29.94 in1013.9 mb 0.00 in0.0 mm 0.00 in0.0 mm 0.00 in0.0 mm
02:55 AM 52.9°F11.6°C 43.6°F6.4°C 70% Calm Calm -- 29.91 in1012.9 mb 0.00 in0.0 mm 0.00 in0.0 mm 0.00 in0.0 mm
03:00 AM 53.4°F11.9°C 43.7°F6.5°C 69% Calm Calm -- 29.91 in1012.9 mb 0.00 in0.0 mm 0.00 in0.0 mm 0.00 in0.0 mm
03:05 AM 53.8°F12.1°C 42.8°F6.0°C 66% Calm Calm -- 29.91 in1012.9 mb 0.00 in0.0 mm 0.00 in0.0 mm 0.00 in0.0 mm
03:10 AM 54.1°F12.3°C 42.7°F5.9°C 65% Calm Calm -- 29.91 in1012.9 mb 0.00 in0.0 mm 0.00 in0.0 mm 0.00 in0.0 mm
03:16 AM 54.5°F12.5°C 42.6°F5.9°C 64% Calm Calm -- 29.91 in1012.9 mb 0.00 in0.0 mm 0.00 in0.0 mm 0.00 in0.0 mm
03:21 AM 54.7°F12.6°C 42.3°F5.7°C 63% Calm Calm -- 29.91 in1012.9 mb 0.00 in0.0 mm 0.00 in0.0 mm 0.00 in0.0 mm
03:26 AM 54.9°F12.7°C 42.1°F5.6°C 62% Calm Calm -- 29.91 in1012.9 mb 0.00 in0.0 mm 0.00 in0.0 mm 0.00 in0.0 mm
03:31 AM 54.9°F12.7°C 42.1°F5.6°C 62% Calm Calm -- 29.91 in1012.9 mb 0.00 in0.0 mm 0.00 in0.0 mm 0.00 in0.0 mm
03:37 AM 55.0°F12.8°C 41.7°F5.4°C 61% Calm Calm -- 29.91 in1012.9 mb 0.00 in0.0 mm 0.00 in0.0 mm 0.00 in0.0 mm
03:42 AM 55.0°F12.8°C 41.7°F5.4°C 61% Calm Calm -- 29.91 in1012.9 mb 0.00 in0.0 mm 0.00 in0.0 mm 0.00 in0.0 mm
03:47 AM 54.9°F12.7°C 41.6°F5.3°C 61% Calm Calm -- 29.91 in1012.9 mb 0.00 in0.0 mm 0.00 in0.0 mm 0.00 in0.0 mm
03:52 AM 54.9°F12.7°C 41.6°F5.3°C 61% Calm Calm -- 29.91 in1012.9 mb 0.00 in0.0 mm 0.00 in0.0 mm 0.00 in0.0 mm
03:57 AM 54.9°F12.7°C 41.6°F5.3°C 61% Calm Calm -- 29.91 in1012.9 mb 0.00 in0.0 mm 0.00 in0.0 mm 0.00 in0.0 mm
04:02 AM 54.7°F12.6°C 41.4°F5.2°C 61% Calm Calm -- 29.91 in1012.9 mb 0.00 in0.0 mm 0.00 in0.0 mm 0.00 in0.0 mm
04:07 AM 54.7°F12.6°C 41.9°F5.5°C 62% Calm Calm -- 29.91 in1012.9 mb 0.00 in0.0 mm 0.00 in0.0 mm 0.00 in0.0 mm
04:12 AM 54.7°F12.6°C 41.9°F5.5°C 62% Calm Calm -- 29.91 in1012.9 mb 0.00 in0.0 mm 0.00 in0.0 mm 0.00 in0.0 mm
04:17 AM 54.7°F12.6°C 41.9°F5.5°C 62% Calm Calm -- 29.91 in1012.9 mb 0.00 in0.0 mm 0.00 in0.0 mm 0.00 in0.0 mm
04:22 AM 54.5°F12.5°C 41.2°F5.1°C 61% Calm Calm -- 29.91 in1012.9 mb 0.00 in0.0 mm 0.00 in0.0 mm 0.00 in0.0 mm
04:28 AM 54.5°F12.5°C 41.2°F5.1°C 61% Calm Calm -- 29.91 in1012.9 mb 0.00 in0.0 mm 0.00 in0.0 mm 0.00 in0.0 mm
04:33 AM 54.5°F12.5°C 41.2°F5.1°C 61% Calm Calm -- 29.91 in1012.9 mb 0.00 in0.0 mm 0.00 in0.0 mm 0.00 in0.0 mm
04:38 AM 54.5°F12.5°C 41.7°F5.4°C 62% Calm Calm -- 29.88 in1011.9 mb 0.00 in0.0 mm 0.00 in0.0 mm 0.00 in0.0 mm
04:43 AM 54.5°F12.5°C 41.2°F5.1°C 61% Calm Calm -- 29.88 in1011.9 mb 0.00 in0.0 mm 0.00 in0.0 mm 0.00 in0.0 mm
04:50 AM 54.5°F12.5°C 41.2°F5.1°C 61% Calm Calm -- 29.88 in1011.9 mb 0.00 in0.0 mm 0.00 in0.0 mm 0.00 in0.0 mm
04:54 AM 54.5°F12.5°C 41.2°F5.1°C 61% Calm Calm -- 29.91 in1012.9 mb 0.00 in0.0 mm 0.00 in0.0 mm 0.00 in0.0 mm
05:00 AM 54.5°F12.5°C 41.2°F5.1°C 61% Calm Calm -- 29.91 in1012.9 mb 0.00 in0.0 mm 0.00 in0.0 mm 0.00 in0.0 mm
05:05 AM 54.5°F12.5°C 41.7°F5.4°C 62% Calm Calm -- 29.91 in1012.9 mb 0.00 in0.0 mm 0.00 in0.0 mm 0.00 in0.0 mm
05:10 AM 54.5°F12.5°C 41.7°F5.4°C 62% Calm Calm -- 29.91 in1012.9 mb 0.00 in0.0 mm 0.00 in0.0 mm 0.00 in0.0 mm
05:15 AM 54.5°F12.5°C 41.7°F5.4°C 62% Calm Calm -- 29.91 in1012.9 mb 0.00 in0.0 mm 0.00 in0.0 mm 0.00 in0.0 mm
05:20 AM 54.3°F12.4°C 42.0°F5.6°C 63% Calm Calm -- 29.91 in1012.9 mb 0.00 in0.0 mm 0.00 in0.0 mm 0.00 in0.0 mm
05:25 AM 54.3°F12.4°C 42.4°F5.8°C 64% Calm Calm -- 29.88 in1011.9 mb 0.00 in0.0 mm 0.00 in0.0 mm 0.00 in0.0 mm
05:30 AM 54.1°F12.3°C 42.2°F5.7°C 64% Calm Calm -- 29.88 in1011.9 mb 0.00 in0.0 mm 0.00 in0.0 mm 0.00 in0.0 mm
05:35 AM 54.1°F12.3°C 42.2°F5.7°C 64% Calm Calm -- 29.88 in1011.9 mb 0.00 in0.0 mm 0.00 in0.0 mm 0.00 in0.0 mm
05:40 AM 54.0°F12.2°C 42.6°F5.9°C 65% Calm Calm -- 29.88 in1011.9 mb 0.00 in0.0 mm 0.00 in0.0 mm 0.00 in0.0 mm
05:45 AM 54.0°F12.2°C 43.0°F6.1°C 66% Calm Calm -- 29.88 in1011.9 mb 0.00 in0.0 mm 0.00 in0.0 mm 0.00 in0.0 mm
05:51 AM 53.8°F12.1°C 43.3°F6.3°C 67% Calm Calm -- 29.88 in1011.9 mb 0.00 in0.0 mm 0.00 in0.0 mm 0.00 in0.0 mm
05:56 AM 53.8°F12.1°C 43.3°F6.3°C 67% Calm Calm -- 29.88 in1011.9 mb 0.00 in0.0 mm 0.00 in0.0 mm 0.00 in0.0 mm
06:01 AM 53.8°F12.1°C 43.3°F6.3°C 67% Calm Calm -- 29.88 in1011.9 mb 0.00 in0.0 mm 0.00 in0.0 mm 0.00 in0.0 mm
06:06 AM 53.8°F12.1°C 43.7°F6.5°C 68% Calm Calm -- 29.88 in1011.9 mb 0.00 in0.0 mm 0.00 in0.0 mm 0.00 in0.0 mm
06:11 AM 53.8°F12.1°C 44.1°F6.7°C 69% Calm Calm -- 29.91 in1012.9 mb 0.00 in0.0 mm 0.00 in0.0 mm 0.00 in0.0 mm
06:16 AM 53.8°F12.1°C 44.5°F6.9°C 70% Calm Calm -- 29.91 in1012.9 mb 0.00 in0.0 mm 0.00 in0.0 mm 0.00 in0.0 mm
06:21 AM 53.8°F12.1°C 44.1°F6.7°C 69% Calm Calm -- 29.91 in1012.9 mb 0.00 in0.0 mm 0.00 in0.0 mm 0.00 in0.0 mm
06:26 AM 53.8°F12.1°C 43.7°F6.5°C 68% Calm Calm -- 29.91 in1012.9 mb 0.00 in0.0 mm 0.00 in0.0 mm 0.00 in0.0 mm
06:31 AM 53.8°F12.1°C 43.7°F6.5°C 68% Calm Calm -- 29.91 in1012.9 mb 0.00 in0.0 mm 0.00 in0.0 mm 0.00 in0.0 mm
06:36 AM 53.8°F12.1°C 44.1°F6.7°C 69% Calm Calm -- 29.91 in1012.9 mb 0.00 in0.0 mm 0.00 in0.0 mm 0.00 in0.0 mm
06:42 AM 53.8°F12.1°C 44.5°F6.9°C 70% Calm Calm -- 29.91 in1012.9 mb 0.00 in0.0 mm 0.00 in0.0 mm 0.00 in0.0 mm
06:47 AM 53.8°F12.1°C 44.9°F7.2°C 72% Calm Calm -- 29.91 in1012.9 mb 0.00 in0.0 mm 0.00 in0.0 mm 0.00 in0.0 mm
06:52 AM 53.6°F12.0°C 45.1°F7.3°C 73% Calm Calm -- 29.91 in1012.9 mb 0.00 in0.0 mm 0.00 in0.0 mm 0.00 in0.0 mm
06:57 AM 53.6°F12.0°C 45.5°F7.5°C 74% Calm Calm -- 29.88 in1011.9 mb 0.00 in0.0 mm 0.00 in0.0 mm 0.00 in0.0 mm
07:02 AM 53.6°F12.0°C 45.9°F7.7°C 75% Calm Calm -- 29.88 in1011.9 mb 0.00 in0.0 mm 0.00 in0.0 mm 0.00 in0.0 mm
07:07 AM 53.6°F12.0°C 45.1°F7.3°C 73% Calm Calm -- 29.88 in1011.9 mb 0.00 in0.0 mm 0.00 in0.0 mm 0.00 in0.0 mm
07:12 AM 53.6°F12.0°C 45.9°F7.7°C 75% Calm Calm -- 29.88 in1011.9 mb 0.00 in0.0 mm 0.00 in0.0 mm 0.00 in0.0 mm
07:17 AM 53.8°F12.1°C 45.7°F7.6°C 74% Calm Calm -- 29.88 in1011.9 mb 0.00 in0.0 mm 0.00 in0.0 mm 0.00 in0.0 mm
07:23 AM 53.8°F12.1°C 45.3°F7.4°C 73% Calm Calm -- 29.91 in1012.9 mb 0.00 in0.0 mm 0.00 in0.0 mm 0.00 in0.0 mm
07:28 AM 54.0°F12.2°C 45.9°F7.7°C 74% Calm Calm -- 29.91 in1012.9 mb 0.00 in0.0 mm 0.00 in0.0 mm 0.00 in0.0 mm
07:33 AM 54.0°F12.2°C 45.9°F7.7°C 74% Calm Calm -- 29.91 in1012.9 mb 0.00 in0.0 mm 0.00 in0.0 mm 0.00 in0.0 mm
07:38 AM 54.1°F12.3°C 46.0°F7.8°C 74% Calm Calm -- 29.91 in1012.9 mb 0.00 in0.0 mm 0.00 in0.0 mm 0.00 in0.0 mm
07:43 AM 54.3°F12.4°C 46.6°F8.1°C 75% Calm Calm -- 29.91 in1012.9 mb 0.00 in0.0 mm 0.00 in0.0 mm 0.00 in0.0 mm
07:48 AM 54.3°F12.4°C 46.9°F8.3°C 76% Calm Calm -- 29.91 in1012.9 mb 0.00 in0.0 mm 0.00 in0.0 mm 0.00 in0.0 mm
07:53 AM 54.5°F12.5°C 47.1°F8.4°C 76% Calm Calm -- 29.91 in1012.9 mb 0.00 in0.0 mm 0.00 in0.0 mm 0.00 in0.0 mm
07:58 AM 54.7°F12.6°C 47.7°F8.7°C 77% Calm Calm -- 29.91 in1012.9 mb 0.00 in0.0 mm 0.00 in0.0 mm 0.00 in0.0 mm
08:03 AM 54.9°F12.7°C 47.9°F8.8°C 77% Calm Calm -- 29.91 in1012.9 mb 0.00 in0.0 mm 0.00 in0.0 mm 0.00 in0.0 mm
08:08 AM 55.0°F12.8°C 48.4°F9.1°C 78% Calm Calm -- 29.91 in1012.9 mb 0.00 in0.0 mm 0.00 in0.0 mm 0.00 in0.0 mm
08:14 AM 55.2°F12.9°C 48.6°F9.2°C 78% Calm Calm -- 29.91 in1012.9 mb 0.00 in0.0 mm 0.00 in0.0 mm 0.00 in0.0 mm
08:19 AM 55.6°F13.1°C 48.9°F9.4°C 78% Calm Calm -- 29.91 in1012.9 mb 0.00 in0.0 mm 0.00 in0.0 mm 0.00 in0.0 mm
08:24 AM 55.9°F13.3°C 49.2°F9.6°C 78% Calm Calm -- 29.91 in1012.9 mb 0.00 in0.0 mm 0.00 in0.0 mm 0.00 in0.0 mm
08:29 AM 56.1°F13.4°C 49.4°F9.7°C 78% Calm Calm -- 29.91 in1012.9 mb 0.00 in0.0 mm 0.00 in0.0 mm 0.00 in0.0 mm
08:34 AM 56.5°F13.6°C 49.5°F9.7°C 77% Calm Calm -- 29.91 in1012.9 mb 0.00 in0.0 mm 0.00 in0.0 mm 0.00 in0.0 mm
08:39 AM 56.8°F13.8°C 50.1°F10.1°C 78% Calm Calm -- 29.91 in1012.9 mb 0.00 in0.0 mm 0.00 in0.0 mm 0.00 in0.0 mm
08:44 AM 57.0°F13.9°C 50.3°F10.2°C 78% Calm Calm -- 29.91 in1012.9 mb 0.00 in0.0 mm 0.00 in0.0 mm 0.00 in0.0 mm
08:49 AM 57.2°F14.0°C 50.5°F10.3°C 78% Calm Calm -- 29.91 in1012.9 mb 0.00 in0.0 mm 0.00 in0.0 mm 0.00 in0.0 mm
08:54 AM 57.4°F14.1°C 51.1°F10.6°C 79% Calm Calm -- 29.91 in1012.9 mb 0.00 in0.0 mm 0.00 in0.0 mm 0.00 in0.0 mm
08:59 AM 57.4°F14.1°C 51.1°F10.6°C 79% Calm Calm -- 29.91 in1012.9 mb 0.00 in0.0 mm 0.00 in0.0 mm 0.00 in0.0 mm
09:05 AM 57.2°F14.0°C 51.2°F10.7°C 80% 3.1 mph E5.0 kmh E 5.4 mph8.7 kmh 29.91 in1012.9 mb 0.00 in0.0 mm 0.00 in0.0 mm 0.00 in0.0 mm
09:10 AM 57.0°F13.9°C 51.7°F10.9°C 83% 2.0 mph E3.2 kmh E 5.4 mph8.7 kmh 29.91 in1012.9 mb 0.00 in0.0 mm 0.00 in0.0 mm 0.00 in0.0 mm
09:15 AM 56.8°F13.8°C 52.2°F11.2°C 85% 3.0 mph E4.8 kmh E 7.2 mph11.6 kmh 29.91 in1012.9 mb 0.00 in0.0 mm 0.00 in0.0 mm 0.00 in0.0 mm
09:20 AM 56.7°F13.7°C 52.8°F11.6°C 87% 3.0 mph E4.8 kmh E 7.2 mph11.6 kmh 29.91 in1012.9 mb 0.00 in0.0 mm 0.00 in0.0 mm 0.00 in0.0 mm
09:25 AM 56.5°F13.6°C 53.3°F11.8°C 89% 3.3 mph E5.3 kmh E 5.0 mph8.0 kmh 29.91 in1012.9 mb 0.00 in0.0 mm 0.00 in0.0 mm 0.00 in0.0 mm
09:30 AM 56.3°F13.5°C 53.4°F11.9°C 90% 3.7 mph E6.0 kmh E 5.0 mph8.0 kmh 29.91 in1012.9 mb 0.00 in0.0 mm 0.00 in0.0 mm 0.00 in0.0 mm
09:36 AM 56.3°F13.5°C 53.8°F12.1°C 91% 2.6 mph E4.2 kmh E 5.0 mph8.0 kmh 29.91 in1012.9 mb 0.00 in0.0 mm 0.00 in0.0 mm 0.00 in0.0 mm
09:41 AM 56.3°F13.5°C 54.1°F12.3°C 92% Calm Calm 4.4 mph7.1 kmh 29.91 in1012.9 mb 0.00 in0.0 mm 0.00 in0.0 mm 0.00 in0.0 mm
09:46 AM 56.1°F13.4°C 54.2°F12.3°C 94% 2.3 mph E3.7 kmh E 3.2 mph5.1 kmh 29.91 in1012.9 mb 0.00 in0.0 mm 0.00 in0.0 mm 0.00 in0.0 mm
09:51 AM 56.1°F13.4°C 54.5°F12.5°C 95% 2.2 mph E3.5 kmh E 3.2 mph5.1 kmh 29.91 in1012.9 mb 0.00 in0.0 mm 0.00 in0.0 mm 0.00 in0.0 mm
09:56 AM 55.9°F13.3°C 54.3°F12.4°C 95% 2.2 mph E3.5 kmh E 3.2 mph5.1 kmh 29.91 in1012.9 mb 0.04 in1.0 mm 0.48 in12.2 mm 0.04 in1.0 mm
10:01 AM 55.9°F13.3°C 55.0°F12.8°C 97% 2.6 mph E4.2 kmh E 2.6 mph4.2 kmh 29.91 in1012.9 mb 0.04 in1.0 mm 0.00 in0.0 mm 0.04 in1.0 mm
10:06 AM 55.8°F13.2°C 54.9°F12.7°C 97% 2.2 mph E3.5 kmh E 4.0 mph6.4 kmh 29.91 in1012.9 mb 0.04 in1.0 mm 0.00 in0.0 mm 0.04 in1.0 mm
10:12 AM 55.8°F13.2°C 55.5°F13.1°C 99% Calm Calm 4.0 mph6.4 kmh 29.91 in1012.9 mb 0.04 in1.0 mm 0.00 in0.0 mm 0.09 in2.3 mm
10:17 AM 55.8°F13.2°C 55.5°F13.1°C 99% 1.8 mph E2.9 kmh E 4.0 mph6.4 kmh 29.91 in1012.9 mb 0.04 in1.0 mm 0.00 in0.0 mm 0.09 in2.3 mm
10:21 AM 55.8°F13.2°C 55.5°F13.1°C 99% Calm Calm 1.8 mph2.9 kmh 29.91 in1012.9 mb 0.04 in1.0 mm 0.00 in0.0 mm 0.09 in2.3 mm
10:26 AM 55.8°F13.2°C 55.8°F13.2°C 100% Calm Calm 2.6 mph4.2 kmh 29.91 in1012.9 mb 0.04 in1.0 mm 0.00 in0.0 mm 0.09 in2.3 mm
10:32 AM 55.8°F13.2°C 55.8°F13.2°C 100% 3.2 mph E5.1 kmh E 3.2 mph5.1 kmh 29.91 in1012.9 mb 0.04 in1.0 mm 0.00 in0.0 mm 0.09 in2.3 mm
10:37 AM 55.8°F13.2°C 55.8°F13.2°C 100% Calm Calm 3.2 mph5.1 kmh 29.91 in1012.9 mb 0.04 in1.0 mm 0.00 in0.0 mm 0.09 in2.3 mm
10:42 AM 55.9°F13.3°C 55.9°F13.3°C 100% Calm Calm -- 29.88 in1011.9 mb 0.04 in1.0 mm 0.00 in0.0 mm 0.09 in2.3 mm
10:47 AM 55.9°F13.3°C 55.9°F13.3°C 100% Calm Calm -- 29.88 in1011.9 mb 0.04 in1.0 mm 0.00 in0.0 mm 0.09 in2.3 mm
10:52 AM 56.1°F13.4°C 56.1°F13.4°C 100% Calm Calm -- 29.88 in1011.9 mb 0.08 in2.0 mm 0.48 in12.2 mm 0.13 in3.3 mm
10:57 AM 56.3°F13.5°C 56.3°F13.5°C 100% Calm Calm -- 29.85 in1010.8 mb 0.08 in2.0 mm 0.00 in0.0 mm 0.13 in3.3 mm
11:02 AM 56.3°F13.5°C 56.3°F13.5°C 100% Calm Calm -- 29.85 in1010.8 mb 0.08 in2.0 mm 0.00 in0.0 mm 0.13 in3.3 mm
11:07 AM 56.3°F13.5°C 56.3°F13.5°C 100% Calm Calm -- 29.85 in1010.8 mb 0.08 in2.0 mm 0.00 in0.0 mm 0.13 in3.3 mm
11:12 AM 56.3°F13.5°C 56.3°F13.5°C 100% 2.3 mph E3.7 kmh E 3.2 mph5.1 kmh 29.88 in1011.9 mb 0.00 in0.0 mm 0.00 in0.0 mm 0.13 in3.3 mm
11:17 AM 56.3°F13.5°C 56.3°F13.5°C 100% Calm Calm 3.2 mph5.1 kmh 29.88 in1011.9 mb 0.00 in0.0 mm 0.00 in0.0 mm 0.13 in3.3 mm
11:22 AM 56.3°F13.5°C 56.3°F13.5°C 100% Calm Calm 1.8 mph2.9 kmh 29.88 in1011.9 mb 0.00 in0.0 mm 0.00 in0.0 mm 0.13 in3.3 mm
11:27 AM 56.3°F13.5°C 56.3°F13.5°C 100% Calm Calm 1.8 mph2.9 kmh 29.88 in1011.9 mb 0.00 in0.0 mm 0.00 in0.0 mm 0.13 in3.3 mm
11:32 AM 56.3°F13.5°C 56.3°F13.5°C 100% 2.2 mph E3.5 kmh E 2.6 mph4.2 kmh 29.88 in1011.9 mb 0.00 in0.0 mm 0.00 in0.0 mm 0.13 in3.3 mm
11:37 AM 56.5°F13.6°C 56.5°F13.6°C 100% Calm Calm 2.6 mph4.2 kmh 29.88 in1011.9 mb 0.00 in0.0 mm 0.00 in0.0 mm 0.13 in3.3 mm
11:42 AM 56.5°F13.6°C 56.5°F13.6°C 100% Calm Calm -- 29.85 in1010.8 mb 0.00 in0.0 mm 0.00 in0.0 mm 0.13 in3.3 mm
11:47 AM 56.5°F13.6°C 56.5°F13.6°C 100% Calm Calm -- 29.85 in1010.8 mb 0.00 in0.0 mm 0.00 in0.0 mm 0.13 in3.3 mm
11:52 AM 56.5°F13.6°C 56.5°F13.6°C 100% Calm Calm -- 29.85 in1010.8 mb 0.00 in0.0 mm 0.00 in0.0 mm 0.13 in3.3 mm
11:57 AM 56.5°F13.6°C 56.5°F13.6°C 100% Calm Calm -- 29.85 in1010.8 mb 0.00 in0.0 mm 0.00 in0.0 mm 0.13 in3.3 mm
12:02 PM 56.5°F13.6°C 56.5°F13.6°C 100% Calm Calm -- 29.85 in1010.8 mb 0.00 in0.0 mm 0.00 in0.0 mm 0.13 in3.3 mm
12:07 PM 56.7°F13.7°C 56.7°F13.7°C 100% Calm Calm 2.2 mph3.5 kmh 29.85 in1010.8 mb 0.00 in0.0 mm 0.00 in0.0 mm 0.13 in3.3 mm
12:12 PM 56.7°F13.7°C 56.7°F13.7°C 100% Calm Calm 2.2 mph3.5 kmh 29.85 in1010.8 mb 0.00 in0.0 mm 0.00 in0.0 mm 0.13 in3.3 mm
12:17 PM 56.8°F13.8°C 56.8°F13.8°C 100% 2.2 mph E3.5 kmh E 2.2 mph3.5 kmh 29.85 in1010.8 mb 0.00 in0.0 mm 0.00 in0.0 mm 0.13 in3.3 mm
12:22 PM 57.0°F13.9°C 57.0°F13.9°C 100% Calm Calm 2.2 mph3.5 kmh 29.85 in1010.8 mb 0.00 in0.0 mm 0.00 in0.0 mm 0.13 in3.3 mm
12:29 PM 57.0°F13.9°C 57.0°F13.9°C 100% Calm Calm -- 29.85 in1010.8 mb 0.00 in0.0 mm 0.00 in0.0 mm 0.13 in3.3 mm
12:34 PM 57.0°F13.9°C 57.0°F13.9°C 100% Calm Calm -- 29.85 in1010.8 mb 0.00 in0.0 mm 0.00 in0.0 mm 0.13 in3.3 mm
12:39 PM 57.2°F14.0°C 57.2°F14.0°C 100% Calm Calm -- 29.83 in1010.2 mb 0.00 in0.0 mm 0.00 in0.0 mm 0.13 in3.3 mm
12:44 PM 57.2°F14.0°C 57.2°F14.0°C 100% Calm Calm -- 29.83 in1010.2 mb 0.00 in0.0 mm 0.00 in0.0 mm 0.13 in3.3 mm
12:49 PM 57.2°F14.0°C 57.2°F14.0°C 100% Calm Calm -- 29.83 in1010.2 mb 0.00 in0.0 mm 0.00 in0.0 mm 0.13 in3.3 mm
12:54 PM 57.2°F14.0°C 57.2°F14.0°C 100% Calm Calm -- 29.85 in1010.8 mb 0.00 in0.0 mm 0.00 in0.0 mm 0.13 in3.3 mm
01:00 PM 57.4°F14.1°C 57.4°F14.1°C 100% Calm Calm -- 29.85 in1010.8 mb 0.00 in0.0 mm 0.00 in0.0 mm 0.13 in3.3 mm
01:05 PM 57.4°F14.1°C 57.4°F14.1°C 100% Calm Calm -- 29.85 in1010.8 mb 0.00 in0.0 mm 0.00 in0.0 mm 0.13 in3.3 mm
01:11 PM 57.4°F14.1°C 57.4°F14.1°C 100% Calm Calm -- 29.83 in1010.2 mb 0.04 in1.0 mm 0.40 in10.2 mm 0.17 in4.3 mm
01:16 PM 57.6°F14.2°C 57.6°F14.2°C 100% Calm Calm -- 29.83 in1010.2 mb 0.04 in1.0 mm 0.00 in0.0 mm 0.17 in4.3 mm
01:21 PM 57.6°F14.2°C 57.6°F14.2°C 100% Calm Calm -- 29.83 in1010.2 mb 0.04 in1.0 mm 0.00 in0.0 mm 0.17 in4.3 mm
01:26 PM 57.7°F14.3°C 57.7°F14.3°C 100% Calm Calm -- 29.83 in1010.2 mb 0.04 in1.0 mm 0.00 in0.0 mm 0.17 in4.3 mm
01:31 PM 57.9°F14.4°C 57.9°F14.4°C 100% Calm Calm -- 29.83 in1010.2 mb 0.04 in1.0 mm 0.00 in0.0 mm 0.17 in4.3 mm
01:36 PM 58.1°F14.5°C 58.1°F14.5°C 100% Calm Calm -- 29.83 in1010.2 mb 0.04 in1.0 mm 0.00 in0.0 mm 0.17 in4.3 mm
01:41 PM 58.1°F14.5°C 58.1°F14.5°C 100% Calm Calm -- 29.83 in1010.2 mb 0.04 in1.0 mm 0.00 in0.0 mm 0.17 in4.3 mm
01:46 PM 58.1°F14.5°C 58.1°F14.5°C 100% Calm Calm -- 29.83 in1010.2 mb 0.04 in1.0 mm 0.00 in0.0 mm 0.17 in4.3 mm
01:51 PM 58.1°F14.5°C 58.1°F14.5°C 100% Calm Calm -- 29.83 in1010.2 mb 0.04 in1.0 mm 0.00 in0.0 mm 0.17 in4.3 mm
01:56 PM 58.1°F14.5°C 58.1°F14.5°C 100% Calm Calm -- 29.83 in1010.2 mb 0.04 in1.0 mm 0.00 in0.0 mm 0.17 in4.3 mm
02:01 PM 58.1°F14.5°C 58.1°F14.5°C 100% Calm Calm -- 29.83 in1010.2 mb 0.04 in1.0 mm 0.00 in0.0 mm 0.17 in4.3 mm
02:06 PM 58.1°F14.5°C 58.1°F14.5°C 100% Calm Calm -- 29.83 in1010.2 mb 0.04 in1.0 mm 0.00 in0.0 mm 0.17 in4.3 mm
02:11 PM 58.1°F14.5°C 58.1°F14.5°C 100% Calm Calm -- 29.80 in1009.1 mb 0.00 in0.0 mm 0.00 in0.0 mm 0.17 in4.3 mm
02:16 PM 58.1°F14.5°C 58.1°F14.5°C 100% Calm Calm -- 29.80 in1009.1 mb 0.00 in0.0 mm 0.00 in0.0 mm 0.17 in4.3 mm
02:22 PM 58.1°F14.5°C 58.1°F14.5°C 100% Calm Calm -- 29.80 in1009.1 mb 0.00 in0.0 mm 0.00 in0.0 mm 0.17 in4.3 mm
02:27 PM 58.1°F14.5°C 58.1°F14.5°C 100% Calm Calm -- 29.80 in1009.1 mb 0.00 in0.0 mm 0.00 in0.0 mm 0.17 in4.3 mm
02:32 PM 58.1°F14.5°C 58.1°F14.5°C 100% Calm Calm -- 29.80 in1009.1 mb 0.00 in0.0 mm 0.00 in0.0 mm 0.17 in4.3 mm
02:37 PM 58.1°F14.5°C 58.1°F14.5°C 100% Calm Calm -- 29.80 in1009.1 mb 0.00 in0.0 mm 0.00 in0.0 mm 0.17 in4.3 mm
02:42 PM 58.3°F14.6°C 58.3°F14.6°C 100% Calm Calm -- 29.77 in1008.1 mb 0.00 in0.0 mm 0.00 in0.0 mm 0.17 in4.3 mm
02:47 PM 58.3°F14.6°C 58.3°F14.6°C 100% Calm Calm -- 29.77 in1008.1 mb 0.00 in0.0 mm 0.00 in0.0 mm 0.17 in4.3 mm
02:52 PM 58.3°F14.6°C 58.3°F14.6°C 100% Calm Calm -- 29.77 in1008.1 mb 0.00 in0.0 mm 0.00 in0.0 mm 0.17 in4.3 mm
02:57 PM 58.3°F14.6°C 58.3°F14.6°C 100% 2.3 mph E3.7 kmh E 2.6 mph4.2 kmh 29.77 in1008.1 mb 0.00 in0.0 mm 0.00 in0.0 mm 0.17 in4.3 mm
03:02 PM 58.1°F14.5°C 58.1°F14.5°C 100% 2.8 mph E4.5 kmh E 5.8 mph9.3 kmh 29.77 in1008.1 mb 0.00 in0.0 mm 0.00 in0.0 mm 0.17 in4.3 mm
03:07 PM 57.6°F14.2°C 57.6°F14.2°C 100% 5.5 mph E8.9 kmh E 7.2 mph11.6 kmh 29.77 in1008.1 mb 0.00 in0.0 mm 0.00 in0.0 mm 0.17 in4.3 mm
03:12 PM 57.0°F13.9°C 57.0°F13.9°C 100% 6.2 mph E10.0 kmh E 7.6 mph12.2 kmh 29.77 in1008.1 mb 0.00 in0.0 mm 0.00 in0.0 mm 0.17 in4.3 mm
03:17 PM 56.3°F13.5°C 56.3°F13.5°C 100% 6.6 mph E10.6 kmh E 8.6 mph13.8 kmh 29.77 in1008.1 mb 0.00 in0.0 mm 0.00 in0.0 mm 0.17 in4.3 mm
03:22 PM 55.9°F13.3°C 55.9°F13.3°C 100% 7.1 mph E11.4 kmh E 8.6 mph13.8 kmh 29.77 in1008.1 mb 0.00 in0.0 mm 0.00 in0.0 mm 0.17 in4.3 mm
03:27 PM 55.6°F13.1°C 55.6°F13.1°C 100% 3.1 mph E5.0 kmh E 8.0 mph12.9 kmh 29.74 in1007.1 mb 0.00 in0.0 mm 0.00 in0.0 mm 0.17 in4.3 mm
03:32 PM 55.4°F13.0°C 55.4°F13.0°C 100% 5.4 mph E8.7 kmh E 6.8 mph10.9 kmh 29.74 in1007.1 mb 0.00 in0.0 mm 0.00 in0.0 mm 0.17 in4.3 mm
03:37 PM 55.0°F12.8°C 55.0°F12.8°C 100% 4.2 mph E6.8 kmh E 6.8 mph10.9 kmh 29.74 in1007.1 mb 0.00 in0.0 mm 0.00 in0.0 mm 0.17 in4.3 mm
03:42 PM 54.9°F12.7°C 54.9°F12.7°C 100% 3.7 mph E6.0 kmh E 5.8 mph9.3 kmh 29.74 in1007.1 mb 0.00 in0.0 mm 0.00 in0.0 mm 0.17 in4.3 mm
03:47 PM 54.7°F12.6°C 54.7°F12.6°C 100% 2.3 mph E3.7 kmh E 5.8 mph9.3 kmh 29.74 in1007.1 mb 0.00 in0.0 mm 0.00 in0.0 mm 0.17 in4.3 mm
03:52 PM 54.5°F12.5°C 54.5°F12.5°C 100% 3.7 mph E6.0 kmh E 5.8 mph9.3 kmh 29.74 in1007.1 mb 0.00 in0.0 mm 0.00 in0.0 mm 0.17 in4.3 mm
03:57 PM 54.3°F12.4°C 54.3°F12.4°C 100% 3.0 mph E4.8 kmh E 5.8 mph9.3 kmh 29.77 in1008.1 mb 0.04 in1.0 mm 0.48 in12.2 mm 0.21 in5.3 mm
04:02 PM 54.3°F12.4°C 54.3°F12.4°C 100% 4.1 mph E6.6 kmh E 5.8 mph9.3 kmh 29.77 in1008.1 mb 0.04 in1.0 mm 0.00 in0.0 mm 0.21 in5.3 mm
04:07 PM 54.3°F12.4°C 54.3°F12.4°C 100% 2.2 mph E3.5 kmh E 5.8 mph9.3 kmh 29.74 in1007.1 mb 0.04 in1.0 mm 0.00 in0.0 mm 0.21 in5.3 mm
04:14 PM 54.3°F12.4°C 54.3°F12.4°C 100% 3.5 mph E5.6 kmh E 5.4 mph8.7 kmh 29.74 in1007.1 mb 0.00 in0.0 mm 0.00 in0.0 mm 0.21 in5.3 mm
04:19 PM 54.5°F12.5°C 54.5°F12.5°C 100% 3.0 mph E4.8 kmh E 5.4 mph8.7 kmh 29.74 in1007.1 mb 0.00 in0.0 mm 0.00 in0.0 mm 0.21 in5.3 mm
04:24 PM 54.3°F12.4°C 54.3°F12.4°C 100% 4.5 mph E7.2 kmh E 6.2 mph10.0 kmh 29.74 in1007.1 mb 0.00 in0.0 mm 0.00 in0.0 mm 0.21 in5.3 mm
04:29 PM 54.3°F12.4°C 54.3°F12.4°C 100% 3.8 mph E6.1 kmh E 6.2 mph10.0 kmh 29.74 in1007.1 mb 0.00 in0.0 mm 0.00 in0.0 mm 0.21 in5.3 mm
04:34 PM 54.3°F12.4°C 54.3°F12.4°C 100% 4.0 mph E6.4 kmh E 6.2 mph10.0 kmh 29.74 in1007.1 mb 0.00 in0.0 mm 0.00 in0.0 mm 0.21 in5.3 mm
04:39 PM 54.3°F12.4°C 54.3°F12.4°C 100% 2.8 mph E4.5 kmh E 5.0 mph8.0 kmh 29.74 in1007.1 mb 0.00 in0.0 mm 0.00 in0.0 mm 0.21 in5.3 mm
04:44 PM 54.1°F12.3°C 54.1°F12.3°C 100% 3.2 mph E5.1 kmh E 5.0 mph8.0 kmh 29.74 in1007.1 mb 0.00 in0.0 mm 0.00 in0.0 mm 0.21 in5.3 mm
04:49 PM 54.1°F12.3°C 54.1°F12.3°C 100% 4.1 mph E6.6 kmh E 5.4 mph8.7 kmh 29.74 in1007.1 mb 0.00 in0.0 mm 0.00 in0.0 mm 0.21 in5.3 mm
04:56 PM 54.0°F12.2°C 54.0°F12.2°C 100% 5.4 mph E8.7 kmh E 6.8 mph10.9 kmh 29.74 in1007.1 mb 0.00 in0.0 mm 0.00 in0.0 mm 0.21 in5.3 mm
05:01 PM 54.0°F12.2°C 54.0°F12.2°C 100% 3.2 mph E5.1 kmh E 6.8 mph10.9 kmh 29.74 in1007.1 mb 0.00 in0.0 mm 0.00 in0.0 mm 0.21 in5.3 mm
05:06 PM 54.0°F12.2°C 54.0°F12.2°C 100% 3.1 mph E5.0 kmh E 5.4 mph8.7 kmh 29.74 in1007.1 mb 0.00 in0.0 mm 0.00 in0.0 mm 0.21 in5.3 mm
05:11 PM 53.8°F12.1°C 53.8°F12.1°C 100% 4.8 mph E7.7 kmh E 6.2 mph10.0 kmh 29.74 in1007.1 mb 0.00 in0.0 mm 0.00 in0.0 mm 0.21 in5.3 mm
05:16 PM 53.6°F12.0°C 53.6°F12.0°C 100% 6.0 mph E9.7 kmh E 7.6 mph12.2 kmh 29.74 in1007.1 mb 0.00 in0.0 mm 0.00 in0.0 mm 0.21 in5.3 mm
05:21 PM 53.6°F12.0°C 53.6°F12.0°C 100% 2.7 mph E4.3 kmh E 7.6 mph12.2 kmh 29.74 in1007.1 mb 0.00 in0.0 mm 0.00 in0.0 mm 0.21 in5.3 mm
05:26 PM 53.4°F11.9°C 53.4°F11.9°C 100% 3.3 mph E5.3 kmh E 6.2 mph10.0 kmh 29.74 in1007.1 mb 0.00 in0.0 mm 0.00 in0.0 mm 0.21 in5.3 mm
05:31 PM 53.2°F11.8°C 53.2°F11.8°C 100% 5.6 mph E9.0 kmh E 7.2 mph11.6 kmh 29.74 in1007.1 mb 0.00 in0.0 mm 0.00 in0.0 mm 0.21 in5.3 mm
05:36 PM 53.1°F11.7°C 53.1°F11.7°C 100% 5.0 mph E8.0 kmh E 7.2 mph11.6 kmh 29.74 in1007.1 mb 0.00 in0.0 mm 0.00 in0.0 mm 0.21 in5.3 mm
05:41 PM 52.9°F11.6°C 52.9°F11.6°C 100% 3.2 mph E5.1 kmh E 7.2 mph11.6 kmh 29.71 in1006.1 mb 0.00 in0.0 mm 0.00 in0.0 mm 0.21 in5.3 mm
05:46 PM 52.9°F11.6°C 52.9°F11.6°C 100% 3.0 mph E4.8 kmh E 5.8 mph9.3 kmh 29.71 in1006.1 mb 0.00 in0.0 mm 0.00 in0.0 mm 0.21 in5.3 mm
05:51 PM 52.9°F11.6°C 52.9°F11.6°C 100% 2.0 mph E3.2 kmh E 5.8 mph9.3 kmh 29.71 in1006.1 mb 0.00 in0.0 mm 0.00 in0.0 mm 0.21 in5.3 mm
05:56 PM 52.9°F11.6°C 52.9°F11.6°C 100% Calm Calm 4.0 mph6.4 kmh 29.71 in1006.1 mb 0.00 in0.0 mm 0.00 in0.0 mm 0.21 in5.3 mm
06:01 PM 52.9°F11.6°C 52.9°F11.6°C 100% 4.4 mph E7.1 kmh E 5.0 mph8.0 kmh 29.71 in1006.1 mb 0.00 in0.0 mm 0.00 in0.0 mm 0.21 in5.3 mm
06:06 PM 52.9°F11.6°C 52.9°F11.6°C 100% 3.5 mph E5.6 kmh E 5.0 mph8.0 kmh 29.71 in1006.1 mb 0.00 in0.0 mm 0.00 in0.0 mm 0.21 in5.3 mm
06:11 PM 52.9°F11.6°C 52.9°F11.6°C 100% 2.1 mph E3.4 kmh E 5.0 mph8.0 kmh 29.71 in1006.1 mb 0.00 in0.0 mm 0.00 in0.0 mm 0.21 in5.3 mm
06:16 PM 52.9°F11.6°C 52.9°F11.6°C 100% Calm Calm 4.4 mph7.1 kmh 29.71 in1006.1 mb 0.00 in0.0 mm 0.00 in0.0 mm 0.21 in5.3 mm
06:21 PM 52.7°F11.5°C 52.7°F11.5°C 100% 2.2 mph E3.5 kmh E 3.2 mph5.1 kmh 29.71 in1006.1 mb 0.00 in0.0 mm 0.00 in0.0 mm 0.21 in5.3 mm
06:26 PM 52.5°F11.4°C 52.5°F11.4°C 100% 2.3 mph E3.7 kmh E 4.0 mph6.4 kmh 29.74 in1007.1 mb 0.00 in0.0 mm 0.00 in0.0 mm 0.21 in5.3 mm
06:31 PM 52.3°F11.3°C 52.3°F11.3°C 100% 5.4 mph E8.7 kmh E 7.6 mph12.2 kmh 29.74 in1007.1 mb 0.00 in0.0 mm 0.00 in0.0 mm 0.21 in5.3 mm
06:36 PM 52.2°F11.2°C 52.2°F11.2°C 100% 5.6 mph E9.0 kmh E 7.6 mph12.2 kmh 29.74 in1007.1 mb 0.00 in0.0 mm 0.00 in0.0 mm 0.21 in5.3 mm
06:41 PM 52.0°F11.1°C 52.0°F11.1°C 100% 4.0 mph E6.4 kmh E 7.6 mph12.2 kmh 29.68 in1005.1 mb 0.00 in0.0 mm 0.00 in0.0 mm 0.21 in5.3 mm
06:46 PM 51.6°F10.9°C 51.6°F10.9°C 100% 4.6 mph E7.4 kmh E 7.6 mph12.2 kmh 29.68 in1005.1 mb 0.00 in0.0 mm 0.00 in0.0 mm 0.21 in5.3 mm
06:51 PM 51.6°F10.9°C 51.6°F10.9°C 100% 3.9 mph E6.3 kmh E 6.8 mph10.9 kmh 29.68 in1005.1 mb 0.00 in0.0 mm 0.00 in0.0 mm 0.21 in5.3 mm
06:56 PM 51.4°F10.8°C 51.4°F10.8°C 100% 3.8 mph E6.1 kmh E 6.8 mph10.9 kmh 29.71 in1006.1 mb 0.00 in0.0 mm 0.00 in0.0 mm 0.21 in5.3 mm
07:01 PM 51.4°F10.8°C 51.4°F10.8°C 100% 1.8 mph E2.9 kmh E 7.2 mph11.6 kmh 29.71 in1006.1 mb 0.00 in0.0 mm 0.00 in0.0 mm 0.21 in5.3 mm
07:07 PM 51.3°F10.7°C 51.3°F10.7°C 100% 3.0 mph E4.8 kmh E 7.2 mph11.6 kmh 29.71 in1006.1 mb 0.00 in0.0 mm 0.00 in0.0 mm 0.21 in5.3 mm
07:12 PM 51.3°F10.7°C 51.3°F10.7°C 100% 3.6 mph E5.8 kmh E 5.4 mph8.7 kmh 29.71 in1006.1 mb 0.00 in0.0 mm 0.00 in0.0 mm 0.21 in5.3 mm
07:17 PM 51.1°F10.6°C 51.1°F10.6°C 100% 2.4 mph E3.9 kmh E 5.4 mph8.7 kmh 29.71 in1006.1 mb 0.00 in0.0 mm 0.00 in0.0 mm 0.21 in5.3 mm
07:22 PM 51.1°F10.6°C 51.1°F10.6°C 100% 3.9 mph E6.3 kmh E 5.4 mph8.7 kmh 29.68 in1005.1 mb 0.00 in0.0 mm 0.00 in0.0 mm 0.21 in5.3 mm
07:28 PM 50.9°F10.5°C 50.9°F10.5°C 100% 3.2 mph E5.1 kmh E 5.8 mph9.3 kmh 29.68 in1005.1 mb 0.00 in0.0 mm 0.00 in0.0 mm 0.21 in5.3 mm
07:33 PM 50.7°F10.4°C 50.7°F10.4°C 100% 5.8 mph E9.3 kmh E 7.2 mph11.6 kmh 29.68 in1005.1 mb 0.00 in0.0 mm 0.00 in0.0 mm 0.21 in5.3 mm
07:38 PM 50.7°F10.4°C 50.7°F10.4°C 100% 4.0 mph E6.4 kmh E 7.6 mph12.2 kmh 29.68 in1005.1 mb 0.00 in0.0 mm 0.00 in0.0 mm 0.21 in5.3 mm
07:43 PM 50.7°F10.4°C 50.7°F10.4°C 100% 4.1 mph E6.6 kmh E 8.0 mph12.9 kmh 29.68 in1005.1 mb 0.00 in0.0 mm 0.00 in0.0 mm 0.21 in5.3 mm
07:48 PM 50.7°F10.4°C 50.7°F10.4°C 100% 4.6 mph E7.4 kmh E 8.0 mph12.9 kmh 29.68 in1005.1 mb 0.00 in0.0 mm 0.00 in0.0 mm 0.21 in5.3 mm
07:53 PM 50.5°F10.3°C 50.5°F10.3°C 100% 3.4 mph E5.5 kmh E 7.6 mph12.2 kmh 29.68 in1005.1 mb 0.00 in0.0 mm 0.00 in0.0 mm 0.21 in5.3 mm
07:59 PM 50.5°F10.3°C 50.5°F10.3°C 100% 4.7 mph E7.6 kmh E 6.8 mph10.9 kmh 29.68 in1005.1 mb 0.00 in0.0 mm 0.00 in0.0 mm 0.21 in5.3 mm
08:04 PM 50.5°F10.3°C 50.5°F10.3°C 100% 4.1 mph E6.6 kmh E 5.8 mph9.3 kmh 29.68 in1005.1 mb 0.00 in0.0 mm 0.00 in0.0 mm 0.21 in5.3 mm
08:09 PM 50.4°F10.2°C 50.4°F10.2°C 100% 4.6 mph E7.4 kmh E 6.2 mph10.0 kmh 29.68 in1005.1 mb 0.00 in0.0 mm 0.00 in0.0 mm 0.21 in5.3 mm
08:14 PM 50.4°F10.2°C 50.4°F10.2°C 100% 5.9 mph E9.5 kmh E 6.8 mph10.9 kmh 29.68 in1005.1 mb 0.00 in0.0 mm 0.00 in0.0 mm 0.21 in5.3 mm
08:19 PM 50.4°F10.2°C 50.4°F10.2°C 100% 3.5 mph E5.6 kmh E 6.8 mph10.9 kmh 29.68 in1005.1 mb 0.00 in0.0 mm 0.00 in0.0 mm 0.21 in5.3 mm
08:24 PM 50.2°F10.1°C 50.2°F10.1°C 100% 4.6 mph E7.4 kmh E 7.6 mph12.2 kmh 29.68 in1005.1 mb 0.00 in0.0 mm 0.00 in0.0 mm 0.21 in5.3 mm
08:29 PM 50.2°F10.1°C 50.2°F10.1°C 100% 4.4 mph E7.1 kmh E 7.6 mph12.2 kmh 29.68 in1005.1 mb 0.00 in0.0 mm 0.00 in0.0 mm 0.21 in5.3 mm
08:34 PM 50.2°F10.1°C 50.2°F10.1°C 100% 3.9 mph E6.3 kmh E 7.2 mph11.6 kmh 29.68 in1005.1 mb 0.00 in0.0 mm 0.00 in0.0 mm 0.21 in5.3 mm
08:39 PM 50.2°F10.1°C 50.2°F10.1°C 100% 4.3 mph E6.9 kmh E 7.2 mph11.6 kmh 29.71 in1006.1 mb 0.00 in0.0 mm 0.00 in0.0 mm 0.21 in5.3 mm
08:44 PM 50.2°F10.1°C 50.2°F10.1°C 100% 3.7 mph E6.0 kmh E 6.2 mph10.0 kmh 29.71 in1006.1 mb 0.00 in0.0 mm 0.00 in0.0 mm 0.21 in5.3 mm
08:49 PM 50.0°F10.0°C 50.0°F10.0°C 100% 5.5 mph E8.9 kmh E 6.2 mph10.0 kmh 29.71 in1006.1 mb 0.00 in0.0 mm 0.00 in0.0 mm 0.21 in5.3 mm
08:54 PM 49.8°F9.9°C 49.8°F9.9°C 100% 5.7 mph E9.2 kmh E 7.6 mph12.2 kmh 29.71 in1006.1 mb 0.00 in0.0 mm 0.00 in0.0 mm 0.21 in5.3 mm
08:59 PM 49.8°F9.9°C 49.8°F9.9°C 100% 5.4 mph E8.7 kmh E 8.6 mph13.8 kmh 29.71 in1006.1 mb 0.00 in0.0 mm 0.00 in0.0 mm 0.21 in5.3 mm
09:04 PM 49.6°F9.8°C 49.6°F9.8°C 100% 4.4 mph E7.1 kmh E 8.6 mph13.8 kmh 29.71 in1006.1 mb 0.00 in0.0 mm 0.00 in0.0 mm 0.21 in5.3 mm
09:09 PM 49.5°F9.7°C 49.5°F9.7°C 100% 5.6 mph E9.0 kmh E 6.8 mph10.9 kmh 29.71 in1006.1 mb 0.00 in0.0 mm 0.00 in0.0 mm 0.21 in5.3 mm
09:14 PM 49.5°F9.7°C 49.5°F9.7°C 100% 2.4 mph E3.9 kmh E 6.8 mph10.9 kmh 29.71 in1006.1 mb 0.00 in0.0 mm 0.00 in0.0 mm 0.21 in5.3 mm
09:19 PM 49.3°F9.6°C 49.3°F9.6°C 100% 2.8 mph E4.5 kmh E 6.8 mph10.9 kmh 29.71 in1006.1 mb 0.00 in0.0 mm 0.00 in0.0 mm 0.21 in5.3 mm
09:24 PM 49.3°F9.6°C 49.3°F9.6°C 100% 5.4 mph E8.7 kmh E 6.8 mph10.9 kmh 29.68 in1005.1 mb 0.00 in0.0 mm 0.00 in0.0 mm 0.21 in5.3 mm
09:29 PM 49.3°F9.6°C 49.3°F9.6°C 100% 3.7 mph E6.0 kmh E 6.8 mph10.9 kmh 29.68 in1005.1 mb 0.00 in0.0 mm 0.00 in0.0 mm 0.21 in5.3 mm
09:34 PM 49.1°F9.5°C 49.1°F9.5°C 100% 3.3 mph E5.3 kmh E 5.8 mph9.3 kmh 29.68 in1005.1 mb 0.00 in0.0 mm 0.00 in0.0 mm 0.21 in5.3 mm
09:39 PM 49.1°F9.5°C 49.1°F9.5°C 100% 5.1 mph E8.2 kmh E 6.2 mph10.0 kmh 29.68 in1005.1 mb 0.00 in0.0 mm 0.00 in0.0 mm 0.21 in5.3 mm
09:44 PM 48.9°F9.4°C 48.9°F9.4°C 100% 3.8 mph E6.1 kmh E 6.8 mph10.9 kmh 29.68 in1005.1 mb 0.00 in0.0 mm 0.00 in0.0 mm 0.21 in5.3 mm
09:49 PM 48.9°F9.4°C 48.9°F9.4°C 100% 3.9 mph E6.3 kmh E 6.8 mph10.9 kmh 29.68 in1005.1 mb 0.00 in0.0 mm 0.00 in0.0 mm 0.21 in5.3 mm
09:54 PM 48.9°F9.4°C 48.9°F9.4°C 100% 2.2 mph E3.5 kmh E 6.8 mph10.9 kmh 29.68 in1005.1 mb 0.00 in0.0 mm 0.00 in0.0 mm 0.21 in5.3 mm
09:59 PM 48.9°F9.4°C 48.9°F9.4°C 100% 2.1 mph E3.4 kmh E 4.0 mph6.4 kmh 29.68 in1005.1 mb 0.00 in0.0 mm 0.00 in0.0 mm 0.21 in5.3 mm
10:04 PM 48.9°F9.4°C 48.9°F9.4°C 100% 5.1 mph E8.2 kmh E 6.8 mph10.9 kmh 29.68 in1005.1 mb 0.00 in0.0 mm 0.00 in0.0 mm 0.21 in5.3 mm
10:09 PM 48.9°F9.4°C 48.9°F9.4°C 100% 4.7 mph E7.6 kmh E 6.8 mph10.9 kmh 29.68 in1005.1 mb 0.00 in0.0 mm 0.00 in0.0 mm 0.21 in5.3 mm
10:14 PM 48.9°F9.4°C 48.9°F9.4°C 100% 5.4 mph E8.7 kmh E 6.2 mph10.0 kmh 29.68 in1005.1 mb 0.00 in0.0 mm 0.00 in0.0 mm 0.21 in5.3 mm
10:19 PM 48.9°F9.4°C 48.9°F9.4°C 100% 5.8 mph E9.3 kmh E 7.2 mph11.6 kmh 29.68 in1005.1 mb 0.00 in0.0 mm 0.00 in0.0 mm 0.21 in5.3 mm
10:24 PM 48.7°F9.3°C 48.7°F9.3°C 100% 3.8 mph E6.1 kmh E 7.2 mph11.6 kmh 29.71 in1006.1 mb 0.00 in0.0 mm 0.00 in0.0 mm 0.21 in5.3 mm
10:29 PM 48.7°F9.3°C 48.7°F9.3°C 100% 5.6 mph E9.0 kmh E 7.6 mph12.2 kmh 29.71 in1006.1 mb 0.00 in0.0 mm 0.00 in0.0 mm 0.21 in5.3 mm
10:34 PM 48.7°F9.3°C 48.7°F9.3°C 100% 5.8 mph E9.3 kmh E 7.6 mph12.2 kmh 29.71 in1006.1 mb 0.00 in0.0 mm 0.00 in0.0 mm 0.21 in5.3 mm
10:39 PM 48.6°F9.2°C 48.6°F9.2°C 100% 8.1 mph E13.0 kmh E 9.4 mph15.1 kmh 29.68 in1005.1 mb 0.00 in0.0 mm 0.00 in0.0 mm 0.21 in5.3 mm
10:44 PM 48.4°F9.1°C 48.4°F9.1°C 100% 5.3 mph E8.5 kmh E 9.4 mph15.1 kmh 29.68 in1005.1 mb 0.00 in0.0 mm 0.00 in0.0 mm 0.21 in5.3 mm
10:49 PM 48.4°F9.1°C 48.4°F9.1°C 100% 6.1 mph E9.8 kmh E 9.4 mph15.1 kmh 29.68 in1005.1 mb 0.00 in0.0 mm 0.00 in0.0 mm 0.21 in5.3 mm
10:55 PM 48.2°F9.0°C 48.2°F9.0°C 100% 4.7 mph E7.6 kmh E 9.0 mph14.5 kmh 29.71 in1006.1 mb 0.00 in0.0 mm 0.00 in0.0 mm 0.21 in5.3 mm
11:00 PM 48.2°F9.0°C 48.2°F9.0°C 100% 3.0 mph E4.8 kmh E 7.6 mph12.2 kmh 29.71 in1006.1 mb 0.00 in0.0 mm 0.00 in0.0 mm 0.21 in5.3 mm
11:05 PM 48.2°F9.0°C 48.2°F9.0°C 100% 4.4 mph E7.1 kmh E 7.2 mph11.6 kmh 29.71 in1006.1 mb 0.00 in0.0 mm 0.00 in0.0 mm 0.21 in5.3 mm
11:10 PM 48.2°F9.0°C 48.2°F9.0°C 100% 2.8 mph E4.5 kmh E 7.2 mph11.6 kmh 29.68 in1005.1 mb 0.00 in0.0 mm 0.00 in0.0 mm 0.21 in5.3 mm
11:15 PM 48.2°F9.0°C 48.2°F9.0°C 100% 5.1 mph E8.2 kmh E 7.6 mph12.2 kmh 29.68 in1005.1 mb 0.00 in0.0 mm 0.00 in0.0 mm 0.21 in5.3 mm
11:20 PM 48.0°F8.9°C 48.0°F8.9°C 100% 5.3 mph E8.5 kmh E 9.4 mph15.1 kmh 29.68 in1005.1 mb 0.00 in0.0 mm 0.00 in0.0 mm 0.21 in5.3 mm
11:25 PM 48.0°F8.9°C 48.0°F8.9°C 100% 1.9 mph E3.1 kmh E 9.4 mph15.1 kmh 29.68 in1005.1 mb 0.00 in0.0 mm 0.00 in0.0 mm 0.21 in5.3 mm
11:30 PM 48.0°F8.9°C 48.0°F8.9°C 100% 2.5 mph E4.0 kmh E 5.0 mph8.0 kmh 29.68 in1005.1 mb 0.00 in0.0 mm 0.00 in0.0 mm 0.21 in5.3 mm
11:35 PM 48.0°F8.9°C 48.0°F8.9°C 100% Calm Calm 5.4 mph8.7 kmh 29.68 in1005.1 mb 0.00 in0.0 mm 0.00 in0.0 mm 0.21 in5.3 mm
11:40 PM 48.0°F8.9°C 48.0°F8.9°C 100% 4.0 mph E6.4 kmh E 5.4 mph8.7 kmh 29.68 in1005.1 mb 0.00 in0.0 mm 0.00 in0.0 mm 0.21 in5.3 mm
11:45 PM 48.2°F9.0°C 48.2°F9.0°C 100% 2.5 mph E4.0 kmh E 5.0 mph8.0 kmh 29.68 in1005.1 mb 0.00 in0.0 mm 0.00 in0.0 mm 0.21 in5.3 mm
11:50 PM 48.2°F9.0°C 48.2°F9.0°C 100% Calm Calm 3.2 mph5.1 kmh 29.68 in1005.1 mb 0.00 in0.0 mm 0.00 in0.0 mm 0.21 in5.3 mm
11:55 PM 48.0°F8.9°C 48.0°F8.9°C 100% 2.6 mph E4.2 kmh E 4.4 mph7.1 kmh 29.68 in1005.1 mb 0.00 in0.0 mm 0.00 in0.0 mm 0.21 in5.3 mm